Create Tblcommutelog Verified Points Advance Search
| # | Trip ID | Id Commuter | Trip Date | Trip Num | Current Lat | Current Lng | Delta Distance | Current Time | Activity | Activity Confidence | Current Speed | |
|---|---|---|---|---|---|---|---|---|---|---|---|---|
| 72901 | 250929_778634_16512833_0717 | 778634 | (not set) | (not set) | 39.18807552345 | -76.692912380404 | 14.2598 | 2025-09-29 08:17:16 | in_vehicle | 100 | 6.9022861587705 | |
| 72902 | 250929_788304_16432573_0756 | 788304 | (not set) | (not set) | 38.818476526181 | -77.043957913221 | 2.4059 | 2025-09-29 08:18:03 | in_vehicle | 100 | 4.479333375057 | |
| 72903 | 250929_784278_16513851_0719 | 784278 | (not set) | (not set) | 39.043475990359 | -77.098704702052 | 40.6858 | 2025-09-29 08:18:03 | in_vehicle | 100 | 12.937316155105 | |
| 72904 | 250929_731669_16507744_0658 | 731669 | (not set) | (not set) | 38.823323729951 | -77.047429061138 | 27.1799 | 2025-09-29 08:18:02 | in_vehicle | 100 | -0.44703925898772 | |
| 72905 | 250929_731669_16507744_0658 | 731669 | (not set) | (not set) | 38.823261556061 | -77.047476264081 | 33.2888 | 2025-09-29 08:18:02 | in_vehicle | 100 | -0.44703925898772 | |
| 72906 | 250929_731669_16507744_0658 | 731669 | (not set) | (not set) | 38.823324327532 | -77.047428625382 | 33.2888 | 2025-09-29 08:18:02 | in_vehicle | 100 | -0.44703925898772 | |
| 72907 | 250929_751043_16497756_0813 | 751043 | (not set) | (not set) | 38.940752954795 | -76.978686220162 | 0.7745 | 2025-09-29 08:18:04 | on_bicycle | 100 | 0.70185163661073 | |
| 72908 | 250929_782619_6461772_0809 | 782619 | (not set) | (not set) | 38.863103391993 | -77.060338771402 | 0.2743 | 2025-09-29 08:18:03 | on_foot | 100 | -0.44703925898772 | |
| 72909 | 250929_782619_6461772_0809 | 782619 | (not set) | (not set) | 38.863103391993 | -77.060338771402 | 0.2743 | 2025-09-29 08:18:03 | on_foot | 100 | -0.44703925898772 | |
| 72910 | 250929_731669_16507744_0658 | 731669 | (not set) | (not set) | 38.824592102355 | -77.047290969712 | 33.3812 | 2025-09-29 08:18:04 | in_vehicle | 100 | 11.314563644979 | |
| 72911 | 250929_785762_6438355_0815 | 785762 | (not set) | (not set) | 38.919974 | -77.032463 | 0.2355 | 2025-09-29 08:18:05 | on_bicycle | 100 | 4.2424025677935 | |
| 72912 | 250929_785550_16514192_0806 | 785550 | (not set) | (not set) | 39.02641436271 | -77.094137033087 | 2.2469 | 2025-09-29 08:18:05 | unknown | 100 | 3.7372482051374 | |
| 72913 | 250929_787413_16515086_0800 | 787413 | (not set) | (not set) | 39.022734407368 | -77.109516794293 | 2.4607 | 2025-09-29 08:18:05 | on_foot | 100 | 1.4975815176089 | |
| 72914 | 250929_780825_6461772_0812 | 780825 | (not set) | (not set) | 38.775099546788 | -77.203581092396 | 0.6867 | 2025-09-29 08:18:07 | in_vehicle | 100 | 7.4119109140165 | |
| 72915 | 250929_785945_16514386_0809 | 785945 | (not set) | (not set) | 38.981351482759 | -76.931593464167 | 1.5774 | 2025-09-29 08:18:08 | unknown | 100 | 2.4631863170224 | |
| 72916 | 250929_786962_16514870_0753 | 786962 | (not set) | (not set) | 38.75976725 | -77.183061466667 | 11.4002 | 2025-09-29 08:18:08 | in_vehicle | 100 | 7.4744964102747 | |
| 72917 | 250929_785945_16514386_0809 | 785945 | (not set) | (not set) | 38.981398212774 | -76.931577622199 | 1.5806 | 2025-09-29 08:18:09 | unknown | 100 | 2.476597494792 | |
| 72918 | 250929_755296_16514962_0753 | 755296 | (not set) | (not set) | 38.906467824897 | -76.998601091078 | 2.9999 | 2025-09-29 08:18:10 | in_vehicle | 100 | 2.3871896429944 | |
| 72919 | 250929_755296_16514962_0753 | 755296 | (not set) | (not set) | 38.906467824897 | -76.998601091078 | 2.9999 | 2025-09-29 08:18:10 | in_vehicle | 100 | 2.3871896429944 | |
| 72920 | 250929_768780_6440298_0807 | 768780 | (not set) | (not set) | 38.885614406551 | -77.031556429698 | 11.8312 | 2025-09-29 08:18:10 | in_vehicle | 100 | 0.80020027358803 |